Aviation Digital Data Service (ADDS)

Output produced by METARs form (1735 UTC 24 June 2019)
found at http://www.aviationweather.gov/metar/data/
 
Forecast for: LELC (SAN JAVIER(MIL/C, ES)
Text: TAF LELC 241700Z 2418/2518 13010KT CAVOK TX29/2513Z TN19/2506Z
Forecast period: 1800 to 1900 UTC 24 June 2019
Forecast type: FROM: standard forecast or significant change
Winds: from the SE (130 degrees) at 12 MPH (10 knots; 5.1 m/s)
Visibility: 6 or more miles 10+ km)
Ceiling: unknown
Clouds: missing
Weather: no significant weather forecast for this period
Text: BECMG 2419/2421 34005KT
Forecast period: 1900 UTC 24 June 2019 to 0700 UTC 25 June 2019
Forecast type: BECOMING: Conditions expected to become as follows by 2100 UTC 24 June 2019
Winds: from the NNW (340 degrees) at 6 MPH (5 knots; 2.6 m/s)
Visibility: 6 or more miles 10+ km)
Ceiling: unknown
Clouds: missing
Weather: no significant weather forecast for this period
Text: BECMG 2507/2509 13010KT
Forecast period: 0700 to 1800 UTC 25 June 2019
Forecast type: BECOMING: Conditions expected to become as follows by 0900 UTC 25 June 2019
Winds: from the SE (130 degrees) at 12 MPH (10 knots; 5.1 m/s)
Visibility: 6 or more miles 10+ km)
Ceiling: unknown
Clouds: missing
Weather: no significant weather forecast for this period